createdAt,value
2018-12-01T00:02:26.740Z,63.23
2018-12-01T00:07:11.747Z,51.37
2018-12-01T00:11:56.663Z,56.63
2018-12-01T00:16:41.671Z,60.23
2018-12-01T00:21:26.657Z,56.70
2018-12-01T00:26:11.675Z,60.47
2018-12-01T00:30:56.573Z,54.40
2018-12-01T00:35:41.599Z,54.97
2018-12-01T00:40:26.473Z,65.93
2018-12-01T00:45:12.508Z,60.43
2018-12-01T00:49:57.502Z,53.80
2018-12-01T00:54:42.535Z,58.73
2018-12-01T00:59:27.396Z,44.20
2018-12-01T01:04:12.220Z,51.00
2018-12-01T01:08:57.023Z,56.57
2018-12-01T01:13:41.826Z,57.13
2018-12-01T01:18:26.663Z,61.60
2018-12-01T01:23:11.524Z,64.73
2018-12-01T01:27:56.364Z,67.57
2018-12-01T01:32:41.275Z,57.43
2018-12-01T01:37:26.071Z,60.07
2018-12-01T01:42:10.925Z,56.07
2018-12-01T01:46:55.677Z,53.77
2018-12-01T01:51:40.482Z,44.00
2018-12-01T01:56:25.292Z,50.43
2018-12-01T02:01:10.217Z,47.27
2018-12-01T02:05:55.103Z,42.17
2018-12-01T02:10:39.906Z,43.77
2018-12-01T02:15:24.799Z,39.87
2018-12-01T02:20:15.342Z,42.90
2018-12-01T02:25:00.304Z,51.67
2018-12-01T02:29:45.256Z,40.50
2018-12-01T02:34:30.055Z,51.27
2018-12-01T02:39:14.920Z,41.37
2018-12-01T02:44:10.586Z,57.67
2018-12-01T02:48:55.385Z,53.37
2018-12-01T02:53:40.199Z,46.30
2018-12-01T02:58:25.053Z,45.47
2018-12-01T03:03:10.001Z,40.97
2018-12-01T03:07:54.887Z,56.87
2018-12-01T03:12:40.058Z,70.60
2018-12-01T03:17:24.833Z,66.90
2018-12-01T03:22:09.679Z,43.57
2018-12-01T03:26:54.684Z,63.80
2018-12-01T03:31:39.491Z,73.43
2018-12-01T03:36:24.325Z,70.77
2018-12-01T03:41:09.122Z,74.50
2018-12-01T03:45:54.017Z,75.97
2018-12-01T03:50:38.871Z,74.23
2018-12-01T03:55:27.240Z,67.37
2018-12-01T04:00:12.226Z,54.63
2018-12-01T04:04:57.097Z,52.30
2018-12-01T04:09:41.915Z,38.90
2018-12-01T04:14:26.800Z,31.47
2018-12-01T04:19:11.701Z,30.43
2018-12-01T04:23:56.633Z,42.30
2018-12-01T04:28:41.475Z,51.40
2018-12-01T04:33:26.277Z,56.13
2018-12-01T04:38:11.258Z,75.43
2018-12-01T04:42:56.135Z,31.00
2018-12-01T04:47:41.100Z,70.90
2018-12-01T04:52:26.083Z,37.53
2018-12-01T04:57:10.928Z,36.47
2018-12-01T05:01:55.897Z,30.70
2018-12-01T05:06:40.863Z,42.50
2018-12-01T05:11:25.845Z,121.43
2018-12-01T05:16:10.808Z,88.60
2018-12-01T05:20:55.759Z,86.13
2018-12-01T05:25:40.577Z,77.00
2018-12-01T05:30:25.529Z,43.83
2018-12-01T05:35:20.975Z,52.70
2018-12-01T05:40:08.160Z,77.83
2018-12-01T05:44:53.116Z,67.70
2018-12-01T05:49:37.983Z,51.50
2018-12-01T05:54:23.026Z,42.87
2018-12-01T05:59:07.924Z,32.30
2018-12-01T06:03:53.143Z,39.63
2018-12-01T06:08:38.121Z,34.23
2018-12-01T06:13:22.990Z,37.43
2018-12-01T06:18:07.977Z,40.23
2018-12-01T06:22:52.849Z,63.90
2018-12-01T06:27:37.775Z,42.27
2018-12-01T06:32:22.612Z,36.07
2018-12-01T06:37:07.421Z,18.23
2018-12-01T06:41:52.242Z,103.93
2018-12-01T06:46:37.141Z,117.03
2018-12-01T06:51:22.000Z,127.03
2018-12-01T06:56:06.838Z,36.47
2018-12-01T07:00:51.720Z,70.70
2018-12-01T07:05:36.518Z,32.87
2018-12-01T07:10:22.233Z,93.90
2018-12-01T07:15:09.444Z,226.57
2018-12-01T07:19:54.308Z,32.90
2018-12-01T07:24:39.123Z,23.80
2018-12-01T07:29:24.068Z,62.30
2018-12-01T07:34:08.990Z,66.57
2018-12-01T07:38:53.808Z,44.87
2018-12-01T07:43:38.658Z,34.20
2018-12-01T07:48:23.559Z,37.10
2018-12-01T07:53:08.483Z,28.40
2018-12-01T07:57:53.411Z,28.00
2018-12-01T08:02:38.417Z,52.27
2018-12-01T08:07:23.267Z,46.43
2018-12-01T08:12:08.188Z,89.83
2018-12-01T08:16:53.169Z,70.73
2018-12-01T08:21:37.990Z,100.87
2018-12-01T08:26:22.813Z,58.53
2018-12-01T08:31:07.680Z,35.17
2018-12-01T08:35:52.595Z,20.77
2018-12-01T08:40:37.463Z,50.40
2018-12-01T08:45:22.604Z,43.53
2018-12-01T08:50:09.989Z,44.73
2018-12-01T08:54:54.849Z,23.93
2018-12-01T08:59:39.736Z,25.17
2018-12-01T09:04:24.789Z,24.87
2018-12-01T09:09:09.795Z,23.67
2018-12-01T09:13:54.682Z,25.93
2018-12-01T09:18:39.691Z,18.10
2018-12-01T09:23:24.589Z,21.13
2018-12-01T09:28:10.038Z,18.97
2018-12-01T09:32:54.917Z,22.50
2018-12-01T09:37:39.907Z,22.80
2018-12-01T09:42:24.926Z,21.30
2018-12-01T09:47:09.969Z,23.17
2018-12-01T09:51:54.870Z,18.97
2018-12-01T09:56:39.935Z,23.40
2018-12-01T10:01:24.923Z,23.73
2018-12-01T10:06:10.086Z,16.70
2018-12-01T10:10:54.995Z,15.40
2018-12-01T10:15:39.922Z,17.47
2018-12-01T10:20:28.925Z,21.57
2018-12-01T10:25:14.989Z,19.87
2018-12-01T10:29:59.911Z,17.40
2018-12-01T10:34:44.879Z,16.07
2018-12-01T10:39:29.737Z,18.37
2018-12-01T10:44:14.595Z,13.40
2018-12-01T10:48:59.474Z,12.80
2018-12-01T10:53:44.380Z,11.63
2018-12-01T10:58:29.248Z,11.80
2018-12-01T11:03:19.217Z,13.13
2018-12-01T11:08:05.182Z,14.47
2018-12-01T11:12:50.287Z,11.20
2018-12-01T11:17:35.256Z,8.10
2018-12-01T11:22:20.519Z,11.57
2018-12-01T11:27:05.494Z,10.83
2018-12-01T11:31:50.397Z,10.70
2018-12-01T11:36:35.517Z,8.83
2018-12-01T11:41:21.520Z,11.70
2018-12-01T11:46:06.475Z,13.00
2018-12-01T11:50:51.410Z,12.93
2018-12-01T11:55:36.465Z,11.73
2018-12-01T12:00:28.340Z,15.77
2018-12-01T12:05:14.051Z,13.07
2018-12-01T12:09:59.042Z,14.47
2018-12-01T12:14:44.124Z,16.10
2018-12-01T12:19:29.228Z,16.10
2018-12-01T12:24:14.099Z,15.10
2018-12-01T12:28:59.038Z,17.77
2018-12-01T12:33:44.101Z,12.37
2018-12-01T12:38:29.066Z,12.73
2018-12-01T12:43:13.934Z,10.33
2018-12-01T12:47:58.921Z,11.17
2018-12-01T12:52:44.550Z,7.97
2018-12-01T12:57:29.497Z,6.10
2018-12-01T13:02:14.421Z,10.73
2018-12-01T13:06:59.369Z,5.03
2018-12-01T13:11:44.279Z,3.90
2018-12-01T13:16:29.127Z,4.37
2018-12-01T13:21:14.035Z,4.10
2018-12-01T13:25:59.006Z,3.53
2018-12-01T13:30:46.471Z,3.27
2018-12-01T13:35:31.424Z,4.20
2018-12-01T13:40:17.135Z,6.23
2018-12-01T13:45:02.175Z,6.20
2018-12-01T13:49:47.203Z,4.57
2018-12-01T13:54:32.164Z,3.37
2018-12-01T13:59:17.242Z,5.33
2018-12-01T14:04:02.318Z,5.67
2018-12-01T14:08:47.202Z,3.33
2018-12-01T14:13:32.103Z,3.60
2018-12-01T14:18:17.108Z,5.60
2018-12-01T14:23:02.129Z,3.80
2018-12-01T14:27:49.415Z,4.10
2018-12-01T14:32:34.585Z,4.83
2018-12-01T14:37:19.461Z,6.00
2018-12-01T14:42:04.552Z,5.33
2018-12-01T14:46:49.578Z,4.37
2018-12-01T14:51:34.582Z,6.53
2018-12-01T14:56:20.073Z,8.20
2018-12-01T15:01:05.053Z,9.00
2018-12-01T15:05:50.051Z,11.50
2018-12-01T15:10:35.184Z,12.47
2018-12-01T15:15:22.261Z,13.37
2018-12-01T15:20:10.993Z,13.57
2018-12-01T15:24:55.889Z,12.97
2018-12-01T15:29:40.896Z,14.07
2018-12-01T15:34:25.895Z,14.07
2018-12-01T15:39:11.891Z,17.53
2018-12-01T15:43:56.937Z,15.37
2018-12-01T15:48:41.858Z,9.97
2018-12-01T15:53:26.741Z,13.80
2018-12-01T15:58:11.724Z,12.20
2018-12-01T16:02:56.703Z,18.13
2018-12-01T16:07:41.844Z,16.87
2018-12-01T16:12:26.961Z,15.00
2018-12-01T16:17:12.278Z,18.10
2018-12-01T16:21:57.550Z,16.67
2018-12-01T16:26:42.522Z,11.80
2018-12-01T16:31:27.735Z,19.20
2018-12-01T16:36:12.891Z,23.87
2018-12-01T16:40:59.312Z,19.63
2018-12-01T16:45:45.428Z,18.37
2018-12-01T16:50:30.831Z,19.83
2018-12-01T16:55:17.261Z,11.37
2018-12-01T17:00:02.275Z,13.87
2018-12-01T17:04:47.424Z,13.80
2018-12-01T17:09:32.342Z,22.17
2018-12-01T17:14:17.391Z,26.03
2018-12-01T17:19:02.782Z,17.10
2018-12-01T17:23:47.734Z,26.13
2018-12-01T17:28:32.830Z,21.90
2018-12-01T17:33:17.961Z,27.57
2018-12-01T17:38:04.233Z,52.03
2018-12-01T17:42:51.249Z,55.90
2018-12-01T17:47:36.259Z,32.13
2018-12-01T17:52:21.199Z,29.87
2018-12-01T17:57:06.155Z,34.00
2018-12-01T18:01:51.102Z,29.60
2018-12-01T18:06:35.985Z,29.37
2018-12-01T18:11:20.911Z,43.90
2018-12-01T18:16:06.318Z,46.60
2018-12-01T18:20:51.252Z,25.40
2018-12-01T18:25:42.033Z,29.57
2018-12-01T18:30:34.687Z,32.50
2018-12-01T18:35:19.654Z,20.30
2018-12-01T18:40:09.049Z,18.40
2018-12-01T18:44:53.912Z,16.83
2018-12-01T18:49:38.842Z,23.70
2018-12-01T18:54:23.790Z,17.83
2018-12-01T18:59:08.802Z,22.67
2018-12-01T19:03:53.772Z,19.33
2018-12-01T19:08:38.820Z,19.57
2018-12-01T19:13:24.116Z,19.67
2018-12-01T19:18:09.867Z,15.37
2018-12-01T19:22:55.209Z,17.43
2018-12-01T19:27:40.278Z,23.33
2018-12-01T19:32:25.313Z,20.40
2018-12-01T19:37:10.391Z,23.83
2018-12-01T19:41:55.327Z,33.83
2018-12-01T19:46:40.425Z,32.10
2018-12-01T19:51:25.492Z,29.83
2018-12-01T19:56:10.558Z,40.00
2018-12-01T20:00:56.895Z,38.13
2018-12-01T20:05:42.015Z,42.50
2018-12-01T20:10:33.491Z,39.27
2018-12-01T20:15:22.748Z,33.83
2018-12-01T20:20:07.832Z,36.80
2018-12-01T20:24:53.908Z,39.53
2018-12-01T20:29:38.955Z,48.80
2018-12-01T20:34:24.085Z,40.40
2018-12-01T20:39:40.599Z,36.57
2018-12-01T20:44:25.576Z,33.63
2018-12-01T20:49:10.650Z,35.03
2018-12-01T20:53:55.774Z,34.60
2018-12-01T20:58:40.854Z,36.33
2018-12-01T21:03:25.922Z,45.10
2018-12-01T21:08:11.028Z,30.27
2018-12-01T21:12:56.653Z,35.73
2018-12-01T21:17:42.953Z,32.30
2018-12-01T21:22:27.943Z,32.77
2018-12-01T21:27:13.144Z,34.87
2018-12-01T21:31:58.191Z,41.70
2018-12-01T21:36:43.346Z,35.47
2018-12-01T21:41:28.473Z,38.37
2018-12-01T21:46:13.797Z,29.83
2018-12-01T21:50:59.275Z,29.13
2018-12-01T21:55:44.495Z,31.00
2018-12-01T22:00:30.666Z,31.07
2018-12-01T22:05:17.413Z,31.90
2018-12-01T22:10:02.373Z,26.10
2018-12-01T22:14:47.462Z,32.20
2018-12-01T22:19:32.469Z,25.73
2018-12-01T22:24:17.480Z,23.00
2018-12-01T22:29:02.394Z,23.63
2018-12-01T22:33:47.391Z,20.07
2018-12-01T22:38:32.347Z,16.63
2018-12-01T22:43:17.336Z,16.80
2018-12-01T22:48:02.964Z,14.57
2018-12-01T22:52:47.924Z,14.60
2018-12-01T22:57:32.817Z,15.53
2018-12-01T23:02:17.849Z,14.53
2018-12-01T23:07:02.753Z,15.07
2018-12-01T23:11:47.612Z,13.87
2018-12-01T23:16:32.434Z,14.37
2018-12-01T23:21:20.585Z,15.53
2018-12-01T23:26:02.216Z,11.80
2018-12-01T23:30:51.567Z,13.77
2018-12-01T23:35:36.530Z,35.00
2018-12-01T23:40:21.534Z,97.30
2018-12-01T23:45:09.269Z,27.43
2018-12-01T23:49:54.138Z,18.07
2018-12-01T23:54:38.949Z,19.13
2018-12-01T23:59:23.881Z,15.60
